Westfield, Wisconsin
Current Conditions -  °F | °C
As of 7:56 AM on Saturday 25 Oct 2014 (Local Time) from KY50 Reporting Station
Overcast Overcast  
Wind Chill: 50°   Ceiling: 100
Heat Index: 50°   Visibility: 10mi
Dew Point: 46°   Wind: 7mph
Humidity: 86%   Direction: 280°W
Pressure: 29.9"   Gusts: NA
Location:  43.88°N, 89.49°W
Report Text: KY50 251256Z AUTO 28006KT 10SM OVC001 10/08 A2990 RMK AO2 TSNO T01000077 SLP124
Loading
Personal Weather Stations






























Interactive Weather Map New forecast layout! Learn more

10-Day Weather Forecast

Advertisements
Track Severe Weather on mobile